createdAt,value
2023-02-11T00:00:41.562Z,98790.88
2023-02-11T00:03:46.337Z,98787.84
2023-02-11T00:06:51.108Z,98791.09
2023-02-11T00:09:55.911Z,98789.81
2023-02-11T00:13:00.561Z,98781.22
2023-02-11T00:16:10.635Z,98793.91
2023-02-11T00:19:15.407Z,98797.13
2023-02-11T00:22:20.526Z,98757.41
2023-02-11T00:25:25.735Z,98775.91
2023-02-11T00:28:30.423Z,98782.75
2023-02-11T00:31:35.724Z,98787.69
2023-02-11T00:34:43.129Z,98791.97
2023-02-11T00:37:47.850Z,98734.63
2023-02-11T00:40:52.659Z,98777.91
2023-02-11T00:43:57.530Z,98767.69
2023-02-11T00:47:02.186Z,98747.59
2023-02-11T00:50:07.586Z,98738.69
2023-02-11T00:53:12.472Z,98778.97
2023-02-11T00:56:17.915Z,98732.88
2023-02-11T00:59:22.800Z,98759.41
2023-02-11T01:02:27.410Z,98783.41
2023-02-11T01:05:32.219Z,98741.25
2023-02-11T01:08:37.323Z,98778.69
2023-02-11T01:11:41.826Z,98754.69
2023-02-11T01:14:46.672Z,98741.75
2023-02-11T01:17:51.606Z,98716.53
2023-02-11T01:20:58.010Z,98761.78
2023-02-11T01:24:02.713Z,98722.03
2023-02-11T01:27:07.570Z,98773.75
2023-02-11T01:30:13.894Z,98772.06
2023-02-11T01:33:19.058Z,98779.06
2023-02-11T01:36:23.957Z,98730.00
2023-02-11T01:39:28.613Z,98750.78
2023-02-11T01:42:33.866Z,98744.47
2023-02-11T01:45:44.800Z,98751.66
2023-02-11T01:49:06.279Z,98753.72
2023-02-11T01:52:19.055Z,98748.13
2023-02-11T01:55:42.175Z,98750.31
2023-02-11T01:58:48.773Z,98744.56
2023-02-11T02:01:58.736Z,98733.19
2023-02-11T02:05:36.890Z,98738.16
2023-02-11T02:08:51.246Z,98741.84
2023-02-11T02:11:56.029Z,98690.56
2023-02-11T02:15:22.007Z,98733.38
2023-02-11T02:18:38.995Z,98731.31
2023-02-11T02:22:17.618Z,98714.78
2023-02-11T02:25:48.164Z,98706.94
2023-02-11T02:29:06.917Z,98676.41
2023-02-11T02:32:43.559Z,98712.38
2023-02-11T02:35:58.324Z,98691.59
2023-02-11T02:39:12.015Z,98704.59
2023-02-11T02:42:18.375Z,98676.31
2023-02-11T02:45:23.003Z,98647.84
2023-02-11T02:48:30.952Z,98672.41
2023-02-11T02:51:38.423Z,98691.25
2023-02-11T02:55:11.481Z,98679.03
2023-02-11T02:58:47.023Z,98681.81
2023-02-11T03:02:03.962Z,98696.59
2023-02-11T03:05:16.170Z,98679.13
2023-02-11T03:08:41.120Z,98653.53
2023-02-11T03:11:45.978Z,98651.19
2023-02-11T03:14:52.386Z,98691.06
2023-02-11T03:18:02.120Z,98689.41
2023-02-11T03:21:08.479Z,98644.00
2023-02-11T03:24:20.117Z,98690.34
2023-02-11T03:27:32.934Z,98665.19
2023-02-11T03:30:44.388Z,98689.13
2023-02-11T03:33:59.616Z,98691.72
2023-02-11T03:37:18.345Z,98677.06
2023-02-11T03:40:26.922Z,98680.16
2023-02-11T03:43:35.598Z,98685.13
2023-02-11T03:46:44.878Z,98680.94
2023-02-11T03:49:53.093Z,98621.13
2023-02-11T03:53:00.560Z,98646.72
2023-02-11T03:56:09.037Z,98671.16
2023-02-11T03:59:13.710Z,98651.84
2023-02-11T04:02:19.088Z,98660.44
2023-02-11T04:05:23.976Z,98644.94
2023-02-11T04:08:28.606Z,98694.44
2023-02-11T04:11:33.213Z,98660.66
2023-02-11T04:14:38.084Z,98690.69
2023-02-11T04:17:43.030Z,98691.63
2023-02-11T04:20:48.156Z,98703.06
2023-02-11T04:23:52.794Z,98684.91
2023-02-11T04:26:57.594Z,98666.47
2023-02-11T04:30:02.589Z,98692.47
2023-02-11T04:33:07.318Z,98649.97
2023-02-11T04:36:12.873Z,98649.13
2023-02-11T04:39:17.949Z,98676.16
2023-02-11T04:42:24.023Z,98670.28
2023-02-11T04:45:28.701Z,98688.72
2023-02-11T04:48:34.913Z,98629.97
2023-02-11T04:51:39.719Z,98675.88
2023-02-11T04:54:44.470Z,98632.94
2023-02-11T04:57:49.211Z,98605.84
2023-02-11T05:00:54.074Z,98653.56
2023-02-11T05:03:58.790Z,98635.81
2023-02-11T05:07:03.601Z,98607.59
2023-02-11T05:10:08.450Z,98626.16
2023-02-11T05:13:13.176Z,98598.91
2023-02-11T05:16:18.569Z,98615.13
2023-02-11T05:19:23.415Z,98624.22
2023-02-11T05:22:28.032Z,98651.03
2023-02-11T05:25:33.148Z,98662.72
2023-02-11T05:28:38.133Z,98623.44
2023-02-11T05:31:42.804Z,98633.19
2023-02-11T05:34:47.439Z,98642.41
2023-02-11T05:37:52.149Z,98629.94
2023-02-11T05:40:57.105Z,98633.13
2023-02-11T05:44:01.842Z,98609.81
2023-02-11T05:47:08.932Z,98653.91
2023-02-11T05:50:13.418Z,98613.88
2023-02-11T05:53:21.571Z,98608.59
2023-02-11T05:56:49.165Z,98649.41
2023-02-11T05:59:53.769Z,98613.34
2023-02-11T06:02:58.427Z,98624.25
2023-02-11T06:06:03.262Z,98614.56
2023-02-11T06:09:09.033Z,98635.50
2023-02-11T06:12:13.772Z,98646.78
2023-02-11T06:15:18.463Z,98629.81
2023-02-11T06:18:23.329Z,98626.16
2023-02-11T06:21:42.436Z,98625.13
2023-02-11T06:25:00.967Z,98638.47
2023-02-11T06:28:06.805Z,98600.41
2023-02-11T06:31:11.908Z,98646.75
2023-02-11T06:34:16.766Z,98651.88
2023-02-11T06:37:22.240Z,98618.94
2023-02-11T06:40:27.298Z,98660.16
2023-02-11T06:43:33.516Z,98620.00
2023-02-11T06:46:41.282Z,98591.06
2023-02-11T06:49:45.978Z,98646.94
2023-02-11T06:52:50.547Z,98635.91
2023-02-11T06:55:55.186Z,98631.00
2023-02-11T06:59:00.423Z,98641.78
2023-02-11T07:02:05.060Z,98618.47
2023-02-11T07:05:09.947Z,98607.75
2023-02-11T07:08:14.615Z,98592.81
2023-02-11T07:11:24.217Z,98638.13
2023-02-11T07:14:28.899Z,98609.97
2023-02-11T07:17:34.930Z,98640.22
2023-02-11T07:20:39.437Z,98624.50
2023-02-11T07:23:43.971Z,98642.28
2023-02-11T07:26:48.827Z,98651.03
2023-02-11T07:29:53.653Z,98661.25
2023-02-11T07:32:58.198Z,98618.38
2023-02-11T07:36:04.897Z,98653.00
2023-02-11T07:39:09.538Z,98643.63
2023-02-11T07:42:14.270Z,98647.00
2023-02-11T07:45:19.364Z,98649.34
2023-02-11T07:48:24.636Z,98655.78
2023-02-11T07:51:30.857Z,98652.28
2023-02-11T07:54:35.678Z,98656.28
2023-02-11T07:57:41.232Z,98658.66
2023-02-11T08:00:46.220Z,98663.03
2023-02-11T08:03:52.197Z,98616.50
2023-02-11T08:06:59.071Z,98659.28
2023-02-11T08:10:04.076Z,98626.56
2023-02-11T08:13:08.571Z,98637.16
2023-02-11T08:16:28.258Z,98667.63
2023-02-11T08:19:35.175Z,98618.88
2023-02-11T08:22:39.879Z,98640.38
2023-02-11T08:25:44.449Z,98624.28
2023-02-11T08:28:50.728Z,98645.38
2023-02-11T08:31:55.257Z,98628.03
2023-02-11T08:34:59.810Z,98598.28
2023-02-11T08:38:04.335Z,98617.34
2023-02-11T08:41:09.098Z,98654.59
2023-02-11T08:44:13.794Z,98605.03
2023-02-11T08:47:18.350Z,98619.63
2023-02-11T08:50:22.978Z,98670.81
2023-02-11T08:53:27.502Z,98646.66
2023-02-11T08:56:33.252Z,98628.38
2023-02-11T08:59:39.997Z,98668.72
2023-02-11T09:02:44.575Z,98627.75
2023-02-11T09:05:53.223Z,98632.38
2023-02-11T09:08:58.578Z,98607.88
2023-02-11T09:12:03.258Z,98643.72
2023-02-11T09:15:08.514Z,98641.16
2023-02-11T09:18:13.431Z,98622.19
2023-02-11T09:21:19.125Z,98626.84
2023-02-11T09:24:23.696Z,98637.16
2023-02-11T09:27:28.282Z,98626.31
2023-02-11T09:30:33.376Z,98601.94
2023-02-11T09:33:39.326Z,98607.28
2023-02-11T09:36:44.008Z,98619.13
2023-02-11T09:39:48.642Z,98637.22
2023-02-11T09:43:14.322Z,98648.22
2023-02-11T09:46:21.210Z,98644.34
2023-02-11T09:49:35.066Z,98607.47
2023-02-11T09:52:54.945Z,98640.56
2023-02-11T09:56:02.263Z,98647.00
2023-02-11T09:59:13.739Z,98620.22
2023-02-11T10:02:29.870Z,98654.34
2023-02-11T10:05:46.513Z,98649.16
2023-02-11T10:08:54.290Z,98650.19
2023-02-11T10:11:59.157Z,98649.63
2023-02-11T10:15:15.623Z,98655.59
2023-02-11T10:18:38.302Z,98653.88
2023-02-11T10:22:00.214Z,98621.78
2023-02-11T10:25:30.610Z,98638.09
2023-02-11T10:28:37.052Z,98591.03
2023-02-11T10:31:45.040Z,98595.16
2023-02-11T10:34:50.597Z,98600.63
2023-02-11T10:37:56.093Z,98607.47
2023-02-11T10:41:00.833Z,98604.75
2023-02-11T10:44:07.401Z,98568.31
2023-02-11T10:47:21.132Z,98605.25
2023-02-11T10:50:28.613Z,98597.13
2023-02-11T10:53:34.955Z,98555.53
2023-02-11T10:56:47.560Z,98571.34
2023-02-11T10:59:58.294Z,98583.97
2023-02-11T11:03:14.623Z,98566.72
2023-02-11T11:06:31.615Z,98563.84
2023-02-11T11:09:48.458Z,98580.13
2023-02-11T11:12:53.093Z,98564.44
2023-02-11T11:16:18.249Z,98535.56
2023-02-11T11:19:26.020Z,98544.69
2023-02-11T11:22:30.914Z,98514.84
2023-02-11T11:25:39.534Z,98533.88
2023-02-11T11:28:47.000Z,98543.81
2023-02-11T11:31:56.840Z,98515.78
2023-02-11T11:35:07.529Z,98542.22
2023-02-11T11:38:14.865Z,98536.84
2023-02-11T11:41:26.128Z,98531.63
2023-02-11T11:44:33.725Z,98525.22
2023-02-11T11:48:16.250Z,98525.59
2023-02-11T11:51:21.610Z,98498.88
2023-02-11T11:54:28.214Z,98515.28
2023-02-11T11:57:37.274Z,98529.41
2023-02-11T12:01:17.054Z,98527.16
2023-02-11T12:04:30.169Z,98516.72
2023-02-11T12:07:37.634Z,98521.66
2023-02-11T12:11:09.311Z,98493.97
2023-02-11T12:14:22.805Z,98498.44
2023-02-11T12:17:47.539Z,98503.47
2023-02-11T12:21:01.025Z,98504.91
2023-02-11T12:24:43.217Z,98512.97
2023-02-11T12:27:54.998Z,98492.81
2023-02-11T12:31:30.354Z,98461.53
2023-02-11T12:34:35.586Z,98492.44
2023-02-11T12:37:45.848Z,98484.84
2023-02-11T12:40:56.423Z,98482.56
2023-02-11T12:44:01.074Z,98487.31
2023-02-11T12:47:27.091Z,98480.69
2023-02-11T12:50:40.629Z,98473.97
2023-02-11T12:54:19.571Z,98468.34
2023-02-11T12:57:31.116Z,98456.34
2023-02-11T13:00:51.818Z,98424.97
2023-02-11T13:04:14.180Z,98459.78
2023-02-11T13:07:28.761Z,98427.44
2023-02-11T13:10:36.660Z,98448.00
2023-02-11T13:14:05.978Z,98453.69
2023-02-11T13:17:44.387Z,98457.44
2023-02-11T13:21:02.522Z,98452.28
2023-02-11T13:24:30.341Z,98462.81
2023-02-11T13:27:44.206Z,98472.75
2023-02-11T13:30:57.353Z,98433.47
2023-02-11T13:34:03.814Z,98465.50
2023-02-11T13:37:38.822Z,98434.09
2023-02-11T13:40:44.320Z,98466.94
2023-02-11T13:44:23.779Z,98448.50
2023-02-11T13:47:33.835Z,98452.16
2023-02-11T13:50:46.618Z,98412.34
2023-02-11T13:53:57.142Z,98408.84
2023-02-11T13:57:19.762Z,98443.03
2023-02-11T14:00:36.516Z,98438.72
2023-02-11T14:04:38.327Z,98427.78
2023-02-11T14:08:30.583Z,98434.19
2023-02-11T14:11:36.477Z,98440.22
2023-02-11T14:15:04.812Z,98426.66
2023-02-11T14:18:44.791Z,98436.41
2023-02-11T14:21:50.039Z,98389.44
2023-02-11T14:24:58.365Z,98430.84
2023-02-11T14:28:24.105Z,98442.31
2023-02-11T14:31:45.528Z,98437.53
2023-02-11T14:34:55.945Z,98448.38
2023-02-11T14:38:41.456Z,98445.50
2023-02-11T14:41:48.782Z,98437.13
2023-02-11T14:44:57.529Z,98401.13
2023-02-11T14:48:13.442Z,98424.91
2023-02-11T14:51:31.697Z,98410.81
2023-02-11T14:54:36.538Z,98433.53
2023-02-11T14:57:44.660Z,98402.03
2023-02-11T15:01:01.283Z,98433.75
2023-02-11T15:04:22.474Z,98448.09
2023-02-11T15:07:27.868Z,98446.03
2023-02-11T15:10:37.921Z,98432.69
2023-02-11T15:13:50.549Z,98417.69
2023-02-11T15:16:59.502Z,98443.78
2023-02-11T15:20:05.560Z,98435.03
2023-02-11T15:23:21.474Z,98437.72
2023-02-11T15:26:26.941Z,98425.38
2023-02-11T15:29:39.285Z,98436.44
2023-02-11T15:32:45.586Z,98436.00
2023-02-11T15:35:52.889Z,98438.88
2023-02-11T15:39:18.450Z,98444.63
2023-02-11T15:42:26.492Z,98436.41
2023-02-11T15:45:34.727Z,98431.06
2023-02-11T15:48:48.670Z,98427.88
2023-02-11T15:51:57.090Z,98421.97
2023-02-11T15:55:03.069Z,98425.75
2023-02-11T15:58:10.803Z,98433.50
2023-02-11T16:01:16.500Z,98443.00
2023-02-11T16:04:25.077Z,98463.81
2023-02-11T16:07:47.468Z,98473.03
2023-02-11T16:11:03.681Z,98472.97
2023-02-11T16:14:31.313Z,98475.38
2023-02-11T16:17:35.960Z,98437.13
2023-02-11T16:20:40.981Z,98477.41
2023-02-11T16:23:58.124Z,98491.66
2023-02-11T16:27:07.143Z,98504.34
2023-02-11T16:30:28.146Z,98490.34
2023-02-11T16:33:33.398Z,98458.63
2023-02-11T16:36:38.517Z,98496.31
2023-02-11T16:39:44.682Z,98464.63
2023-02-11T16:42:49.840Z,98501.41
2023-02-11T16:45:58.854Z,98463.66
2023-02-11T16:49:10.746Z,98464.31
2023-02-11T16:52:16.682Z,98472.63
2023-02-11T16:55:22.301Z,98484.75
2023-02-11T16:58:26.994Z,98501.09
2023-02-11T17:01:32.537Z,98474.91
2023-02-11T17:04:37.640Z,98480.50
2023-02-11T17:07:42.311Z,98504.72
2023-02-11T17:10:47.244Z,98511.44
2023-02-11T17:13:51.952Z,98491.06
2023-02-11T17:16:56.852Z,98493.53
2023-02-11T17:20:01.662Z,98496.19
2023-02-11T17:23:06.358Z,98479.03
2023-02-11T17:26:10.926Z,98508.59
2023-02-11T17:29:18.953Z,98456.81
2023-02-11T17:32:23.532Z,98508.94
2023-02-11T17:35:28.122Z,98484.50
2023-02-11T17:38:33.446Z,98504.06
2023-02-11T17:41:39.442Z,98503.38
2023-02-11T17:44:44.438Z,98478.97
2023-02-11T17:47:49.451Z,98504.59
2023-02-11T17:50:54.029Z,98504.31
2023-02-11T17:54:01.205Z,98504.28
2023-02-11T17:57:06.024Z,98473.47
2023-02-11T18:00:11.300Z,98510.56
2023-02-11T18:03:18.473Z,98521.00
2023-02-11T18:06:23.055Z,98505.47
2023-02-11T18:09:27.880Z,98521.19
2023-02-11T18:12:32.375Z,98525.81
2023-02-11T18:15:36.966Z,98522.84
2023-02-11T18:18:42.525Z,98495.84
2023-02-11T18:21:50.475Z,98495.22
2023-02-11T18:24:55.426Z,98511.81
2023-02-11T18:28:00.128Z,98537.06
2023-02-11T18:31:06.095Z,98541.03
2023-02-11T18:34:11.431Z,98543.69
2023-02-11T18:37:16.325Z,98538.69
2023-02-11T18:40:20.917Z,98530.63
2023-02-11T18:43:25.560Z,98537.13
2023-02-11T18:46:30.587Z,98505.28
2023-02-11T18:49:36.157Z,98499.06
2023-02-11T18:52:40.830Z,98531.50
2023-02-11T18:55:47.009Z,98516.06
2023-02-11T18:58:51.982Z,98513.69
2023-02-11T19:01:56.688Z,98512.88
2023-02-11T19:05:01.494Z,98527.06
2023-02-11T19:08:06.266Z,98522.25
2023-02-11T19:11:11.166Z,98542.69
2023-02-11T19:14:24.483Z,98541.63
2023-02-11T19:17:28.951Z,98549.19
2023-02-11T19:20:33.519Z,98519.16
2023-02-11T19:23:38.673Z,98549.84
2023-02-11T19:26:43.267Z,98539.22
2023-02-11T19:29:47.835Z,98567.03
2023-02-11T19:32:53.190Z,98528.59
2023-02-11T19:36:09.603Z,98550.53
2023-02-11T19:39:14.437Z,98546.72
2023-02-11T19:42:18.981Z,98552.31
2023-02-11T19:45:23.689Z,98566.44
2023-02-11T19:48:28.371Z,98550.75
2023-02-11T19:51:35.573Z,98549.34
2023-02-11T19:54:40.139Z,98569.81
2023-02-11T19:57:45.015Z,98552.13
2023-02-11T20:00:49.601Z,98549.97
2023-02-11T20:03:55.340Z,98559.94
2023-02-11T20:07:00.038Z,98569.31
2023-02-11T20:10:05.277Z,98556.50
2023-02-11T20:13:10.444Z,98567.81
2023-02-11T20:16:21.150Z,98568.25
2023-02-11T20:19:25.765Z,98573.41
2023-02-11T20:22:30.254Z,98562.56
2023-02-11T20:25:38.283Z,98553.97
2023-02-11T20:28:43.248Z,98546.28
2023-02-11T20:31:49.695Z,98554.97
2023-02-11T20:34:54.442Z,98545.56
2023-02-11T20:38:00.420Z,98562.28
2023-02-11T20:41:13.886Z,98542.47
2023-02-11T20:44:18.821Z,98528.81
2023-02-11T20:47:23.507Z,98543.75
2023-02-11T20:50:28.006Z,98553.38
2023-02-11T20:53:35.476Z,98551.44
2023-02-11T20:56:39.997Z,98515.16
2023-02-11T20:59:44.607Z,98563.56
2023-02-11T21:02:52.809Z,98568.34
2023-02-11T21:06:00.746Z,98531.38
2023-02-11T21:09:08.188Z,98567.66
2023-02-11T21:12:13.070Z,98550.66
2023-02-11T21:15:17.777Z,98528.19
2023-02-11T21:18:23.426Z,98556.56
2023-02-11T21:21:27.964Z,98547.97
2023-02-11T21:24:32.782Z,98559.47
2023-02-11T21:27:37.570Z,98543.81
2023-02-11T21:30:42.421Z,98539.72
2023-02-11T21:33:48.222Z,98579.38
2023-02-11T21:36:52.819Z,98533.25
2023-02-11T21:39:57.422Z,98537.00
2023-02-11T21:43:01.930Z,98573.56
2023-02-11T21:46:13.197Z,98577.25
2023-02-11T21:49:19.882Z,98569.50
2023-02-11T21:52:24.620Z,98582.91
2023-02-11T21:55:29.141Z,98575.44
2023-02-11T21:58:34.737Z,98589.47
2023-02-11T22:01:39.745Z,98562.63
2023-02-11T22:04:44.530Z,98593.78
2023-02-11T22:07:49.146Z,98595.75
2023-02-11T22:10:53.815Z,98579.34
2023-02-11T22:13:59.318Z,98610.53
2023-02-11T22:17:04.779Z,98606.00
2023-02-11T22:20:10.432Z,98592.63
2023-02-11T22:23:14.930Z,98606.22
2023-02-11T22:26:22.292Z,98586.44
2023-02-11T22:29:26.842Z,98604.22
2023-02-11T22:32:31.667Z,98605.13
2023-02-11T22:35:36.172Z,98579.38
2023-02-11T22:38:40.751Z,98612.22
2023-02-11T22:41:46.726Z,98613.84
2023-02-11T22:44:51.337Z,98594.78
2023-02-11T22:47:55.907Z,98605.34
2023-02-11T22:51:08.781Z,98597.66
2023-02-11T22:54:16.482Z,98615.41
2023-02-11T22:57:21.052Z,98582.03
2023-02-11T23:03:53.751Z,98612.13
2023-02-11T23:06:58.380Z,98631.97
2023-02-11T23:10:02.925Z,98619.53
2023-02-11T23:13:07.745Z,98636.91
2023-02-11T23:16:15.181Z,98599.94
2023-02-11T23:19:19.907Z,98624.84
2023-02-11T23:22:24.546Z,98622.00
2023-02-11T23:25:29.716Z,98630.91
2023-02-11T23:28:34.242Z,98633.31
2023-02-11T23:31:40.645Z,98629.50
2023-02-11T23:34:45.336Z,98617.88
2023-02-11T23:37:50.427Z,98635.78
2023-02-11T23:40:55.028Z,98621.41
2023-02-11T23:43:59.648Z,98624.75
2023-02-11T23:47:04.469Z,98608.47
2023-02-11T23:50:10.284Z,98633.69
2023-02-11T23:53:15.496Z,98604.16
2023-02-11T23:56:25.770Z,98624.78
2023-02-11T23:59:30.356Z,98625.19
